Time;durP1;ratioP1;P1;durP2;ratioP2;P2;SDS_P1;SDS_P2;PMS_P1;PMS_P2;Temp;Humidity;BMP_temperature;BMP_pressure;BME280_temperature;BME280_humidity;BME280_pressure;Samples;Min_cycle;Max_cycle;Signal;HPM_P1;HPM_P2
2023/06/24 00:02:45;;;;;;;6.17;3.97;;;14.20;99.90;;;;;;1913545;75;25261;-90
2023/06/24 00:05:33;;;;;;;8.30;4.70;;;14.20;99.90;;;;;;1904813;75;25250;-89
2023/06/24 00:11:35;;;;;;;8.97;5.47;;;14.10;99.90;;;;;;1967320;71;27088;-89
2023/06/24 00:28:12;;;;;;;6.80;4.83;;;13.90;99.90;;;;;;1953580;72;27593;-90
2023/06/24 00:34:07;;;;;;;6.20;4.53;;;13.70;99.90;;;;;;1942803;72;26985;-89
2023/06/24 00:36:55;;;;;;;6.40;4.27;;;13.70;99.90;;;;;;1926219;72;25657;-89
2023/06/24 00:39:44;;;;;;;6.57;4.30;;;13.70;99.90;;;;;;1936922;72;25227;-89
2023/06/24 00:42:33;;;;;;;6.67;4.40;;;13.60;99.90;;;;;;1920766;73;25772;-89
2023/06/24 00:45:23;;;;;;;5.97;4.70;;;13.60;99.90;;;;;;1878096;75;25223;-90
2023/06/24 00:48:11;;;;;;;7.23;4.80;;;13.60;99.90;;;;;;1901369;74;25268;-90
2023/06/24 01:20:13;;;;;;;7.43;4.30;;;13.60;99.90;;;;;;1947742;72;26908;-89
2023/06/24 01:23:43;;;;;;;7.33;4.40;;;13.50;99.90;;;;;;1925556;72;25695;-89
2023/06/24 01:26:55;;;;;;;8.00;3.77;;;13.50;99.90;;;;;;1879065;76;26393;-90
2023/06/24 01:30:02;;;;;;;4.27;2.80;;;13.80;99.90;;;;;;1887430;75;25250;-89
2023/06/24 01:32:53;;;;;;;4.60;2.10;;;14.50;99.90;;;;;;1875546;75;25322;-89
2023/06/24 01:35:43;;;;;;;3.73;2.10;;;15.20;99.90;;;;;;1883409;75;25312;-89
2023/06/24 01:45:51;;;;;;;2.23;2.03;;;16.00;99.90;;;;;;1984145;71;26437;-89
2023/06/24 01:48:44;;;;;;;8.80;2.30;;;16.10;99.90;;;;;;2007312;70;25207;-89
2023/06/24 01:51:34;;;;;;;1.80;1.70;;;16.10;99.90;;;;;;2026220;70;25196;-89
2023/06/24 01:54:26;;;;;;;2.27;1.73;;;16.10;99.90;;;;;;2013779;70;25200;-89
2023/06/24 01:57:16;;;;;;;1.70;1.60;;;16.10;99.90;;;;;;2028997;70;25208;-89
2023/06/24 02:00:07;;;;;;;3.80;1.80;;;16.20;99.90;;;;;;2012710;70;25240;-89
2023/06/24 02:02:57;;;;;;;2.10;1.90;;;16.20;99.90;;;;;;2018358;70;25247;-90
2023/06/24 02:05:47;;;;;;;2.27;1.90;;;16.10;99.90;;;;;;2015692;70;25763;-90
2023/06/24 02:08:41;;;;;;;1.70;1.60;;;16.10;99.90;;;;;;2012049;70;25246;-90
2023/06/24 02:14:17;;;;;;;1.83;1.73;;;16.10;99.90;;;;;;1954073;72;27127;-89
2023/06/24 02:17:08;;;;;;;1.90;1.60;;;16.20;99.90;;;;;;1917093;75;25272;-89
2023/06/24 02:19:58;;;;;;;3.27;1.40;;;16.20;99.90;;;;;;1871599;76;25288;-89
2023/06/24 02:22:48;;;;;;;3.67;1.53;;;16.20;99.90;;;;;;1928083;73;25330;-89
2023/06/24 02:25:38;;;;;;;1.63;1.50;;;16.30;99.90;;;;;;1924360;73;25266;-89
2023/06/24 02:28:31;;;;;;;4.93;1.47;;;16.30;99.90;;;;;;1941817;73;25592;-89
2023/06/24 02:34:07;;;;;;;1.40;1.30;;;16.20;99.90;;;;;;1944890;72;28204;-89
2023/06/24 02:36:57;;;;;;;1.47;1.37;;;16.20;99.90;;;;;;1943408;73;25271;-89
2023/06/24 02:39:46;;;;;;;1.60;1.50;;;16.10;99.90;;;;;;1946005;72;25300;-89
2023/06/24 02:42:35;;;;;;;1.50;1.40;;;16.10;99.90;;;;;;1941396;73;25236;-89
2023/06/24 02:45:24;;;;;;;1.67;1.47;;;16.10;99.90;;;;;;1910338;73;25575;-89
2023/06/24 02:48:14;;;;;;;1.00;0.90;;;16.10;99.90;;;;;;1867757;76;25203;-89
2023/06/24 02:53:41;;;;;;;1.50;1.40;;;16.20;99.90;;;;;;1939434;72;27428;-89
2023/06/24 02:59:44;;;;;;;2.53;1.43;;;16.20;99.90;;;;;;1961698;72;27601;-89
2023/06/24 03:05:13;;;;;;;2.70;1.47;;;16.20;99.90;;;;;;1940747;72;26931;-89
2023/06/24 03:08:03;;;;;;;1.20;1.17;;;16.20;99.90;;;;;;1910545;75;25248;-89
2023/06/24 03:10:59;;;;;;;1.33;1.27;;;16.20;99.90;;;;;;1897794;75;25474;-89
2023/06/24 03:13:47;;;;;;;2.17;1.50;;;16.20;99.90;;;;;;1911160;75;25648;-89
2023/06/24 03:16:36;;;;;;;1.60;1.50;;;16.30;99.90;;;;;;1890596;75;25635;-90
2023/06/24 03:19:24;;;;;;;5.13;1.30;;;16.30;99.90;;;;;;1908792;75;25284;-90
2023/06/24 03:22:13;;;;;;;1.60;1.50;;;16.50;99.90;;;;;;1923913;73;25228;-91
2023/06/24 03:25:03;;;;;;;1.43;1.33;;;16.60;99.90;;;;;;1901186;73;25688;-90
2023/06/24 03:27:52;;;;;;;3.53;1.30;;;16.80;99.90;;;;;;1903137;73;25719;-89
2023/06/24 03:30:42;;;;;;;2.77;1.50;;;16.70;99.90;;;;;;1908696;75;25245;-90
2023/06/24 03:33:32;;;;;;;1.90;1.80;;;16.70;99.90;;;;;;1899670;75;25257;-90
2023/06/24 03:36:20;;;;;;;3.83;1.63;;;16.60;99.90;;;;;;1890927;75;25287;-90
2023/06/24 03:39:09;;;;;;;2.93;2.00;;;16.60;99.90;;;;;;1869395;76;25277;-90
2023/06/24 03:41:57;;;;;;;3.80;1.70;;;16.60;99.90;;;;;;1849974;76;25782;-89
2023/06/24 03:44:46;;;;;;;1.90;1.50;;;16.60;99.90;;;;;;1840319;77;25237;-89
2023/06/24 03:47:35;;;;;;;5.73;1.70;;;16.70;99.90;;;;;;1843621;77;25249;-88
2023/06/24 03:53:19;;;;;;;3.70;1.80;;;16.90;99.90;;;;;;1945862;72;26973;-91
2023/06/24 03:56:13;;;;;;;4.03;1.70;;;16.90;99.90;;;;;;1895286;74;25744;-91
2023/06/24 03:59:05;;;;;;;2.90;1.80;;;16.90;99.90;;;;;;1916663;75;25334;-91
2023/06/24 04:01:57;;;;;;;2.37;1.80;;;17.10;99.90;;;;;;1906797;74;25188;-91
2023/06/24 04:04:50;;;;;;;2.50;1.70;;;17.40;99.90;;;;;;1913167;73;25180;-91
2023/06/24 04:07:38;;;;;;;2.80;1.80;;;17.80;99.90;;;;;;1924558;73;25291;-90
2023/06/24 04:13:13;;;;;;;2.63;1.50;;;17.90;99.90;;;;;;1975631;71;27012;-89
2023/06/24 04:16:02;;;;;;;2.00;1.60;;;17.90;99.90;;;;;;1975391;71;25657;-89
2023/06/24 04:18:53;;;;;;;2.40;1.70;;;17.60;99.90;;;;;;1960347;71;25169;-89
2023/06/24 04:21:41;;;;;;;3.73;1.93;;;17.80;99.90;;;;;;1973665;72;26767;-90
2023/06/24 04:24:31;;;;;;;2.67;1.70;;;17.50;99.90;;;;;;1986242;71;25266;-90
2023/06/24 04:27:20;;;;;;;5.73;1.80;;;17.20;99.90;;;;;;1964021;72;25290;-90
2023/06/24 04:30:11;;;;;;;2.83;1.70;;;17.20;99.90;;;;;;1973726;72;25323;-90
2023/06/24 04:50:16;;;;;;;2.23;1.60;;;17.70;99.90;;;;;;1973699;71;27018;-89
2023/06/24 04:53:05;;;;;;;3.70;1.80;;;18.00;99.90;;;;;;2008854;70;25260;-89
2023/06/24 04:55:54;;;;;;;4.20;1.83;;;17.90;99.90;;;;;;2017965;70;25256;-89
2023/06/24 04:58:42;;;;;;;3.80;1.90;;;18.10;99.90;;;;;;2020340;70;25152;-89
2023/06/24 05:01:32;;;;;;;5.87;1.90;;;18.40;99.90;;;;;;2016214;70;25191;-89
2023/06/24 05:04:22;;;;;;;3.90;1.90;;;18.30;99.90;;;;;;2010999;70;25658;-89
2023/06/24 05:07:11;;;;;;;2.90;1.90;;;18.50;99.90;;;;;;2018649;70;25193;-89
2023/06/24 05:09:59;;;;;;;2.57;1.90;;;18.40;99.90;;;;;;2014529;70;25802;-89
2023/06/24 05:12:50;;;;;;;3.70;2.13;;;18.50;99.90;;;;;;2025228;70;25189;-89
2023/06/24 05:15:38;;;;;;;3.70;1.80;;;18.20;99.90;;;;;;2017796;70;25182;-89
2023/06/24 05:36:37;;;;;;;2.67;2.10;;;18.40;99.90;;;;;;1954727;72;27128;-90
2023/06/24 05:39:25;;;;;;;3.30;1.70;;;18.70;99.90;;;;;;1912808;74;25664;-89
2023/06/24 05:42:15;;;;;;;6.87;1.60;;;18.60;99.90;;;;;;1888476;74;25224;-89
2023/06/24 05:47:57;;;;;;;3.37;1.47;;;19.30;99.90;;;;;;1942497;72;27243;-89
2023/06/24 05:54:19;;;;;;;1.53;1.40;;;19.60;99.90;;;;;;1974325;71;27089;-90
2023/06/24 05:57:09;;;;;;;1.60;1.50;;;19.30;99.90;;;;;;2030222;70;25771;-89
2023/06/24 05:59:57;;;;;;;2.13;1.57;;;18.80;99.90;;;;;;2027784;70;25302;-90
2023/06/24 06:02:46;;;;;;;3.47;1.70;;;18.80;99.90;;;;;;2008531;70;25208;-89
2023/06/24 06:05:35;;;;;;;2.93;1.30;;;19.00;99.90;;;;;;2026561;70;25576;-89
2023/06/24 06:08:24;;;;;;;2.17;1.70;;;18.90;99.90;;;;;;2025840;70;25196;-89
2023/06/24 06:11:13;;;;;;;2.87;2.00;;;18.50;99.90;;;;;;2032562;70;25139;-89
2023/06/24 06:14:01;;;;;;;1.90;1.47;;;18.70;99.90;;;;;;2007918;70;25247;-89
2023/06/24 06:16:50;;;;;;;2.27;1.53;;;19.20;99.90;;;;;;2010623;70;25230;-89
2023/06/24 06:19:39;;;;;;;1.73;1.63;;;18.80;99.90;;;;;;1990605;70;25275;-90
2023/06/24 06:22:28;;;;;;;2.50;1.60;;;19.50;99.90;;;;;;2005914;70;25291;-89
2023/06/24 06:25:17;;;;;;;2.73;1.70;;;19.50;99.90;;;;;;2010730;70;25658;-89
2023/06/24 06:28:06;;;;;;;2.60;1.50;;;19.00;99.90;;;;;;2026624;70;25247;-90
2023/06/24 06:30:56;;;;;;;2.97;1.73;;;19.00;99.90;;;;;;2029317;70;25815;-90
2023/06/24 06:33:45;;;;;;;2.70;1.70;;;19.30;99.90;;;;;;2000254;70;25244;-90
2023/06/24 06:36:34;;;;;;;2.40;1.60;;;19.50;99.90;;;;;;2012331;70;25161;-90
2023/06/24 06:39:23;;;;;;;2.07;1.70;;;19.60;99.90;;;;;;2003173;70;25598;-89
2023/06/24 07:10:04;;;;;;;4.43;1.87;;;19.70;99.90;;;;;;1929921;72;26459;-90
2023/06/24 07:34:22;;;;;;;5.03;2.10;;;20.90;99.90;;;;;;1978842;71;26415;-90
2023/06/24 07:37:11;;;;;;;5.17;1.80;;;21.30;99.90;;;;;;1956246;72;25247;-90
2023/06/24 07:42:44;;;;;;;2.57;1.83;;;20.80;99.90;;;;;;1916214;72;26766;-90
2023/06/24 07:45:33;;;;;;;4.33;2.10;;;20.60;99.90;;;;;;1887624;75;25248;-90
2023/06/24 08:04:23;;;;;;;2.80;2.00;;;21.50;99.90;;;;;;1934141;72;27552;-90
2023/06/24 08:07:12;;;;;;;4.73;1.97;;;21.60;99.90;;;;;;1901697;74;25791;-90
2023/06/24 08:10:00;;;;;;;8.50;2.00;;;21.70;99.90;;;;;;1912954;73;25661;-90
2023/06/24 08:12:50;;;;;;;2.90;1.93;;;21.60;99.90;;;;;;1863926;75;25318;-90
2023/06/24 08:18:20;;;;;;;2.83;1.83;;;21.90;99.90;;;;;;1951708;72;26919;-89
2023/06/24 08:21:09;;;;;;;3.13;2.10;;;20.80;99.90;;;;;;1939386;73;25285;-91
2023/06/24 08:23:58;;;;;;;4.23;2.00;;;20.70;99.90;;;;;;1927459;73;25283;-91
2023/06/24 08:26:47;;;;;;;6.13;2.00;;;20.50;99.90;;;;;;1891127;75;25156;-90
2023/06/24 08:29:37;;;;;;;2.40;1.97;;;20.90;99.90;;;;;;1864973;75;25348;-90
2023/06/24 08:32:32;;;;;;;3.93;1.97;;;21.10;99.90;;;;;;1907621;75;25293;-90
2023/06/24 08:35:21;;;;;;;5.00;1.80;;;21.40;99.90;;;;;;1871478;76;26375;-89
2023/06/24 08:38:10;;;;;;;3.33;1.90;;;21.10;99.90;;;;;;1895846;75;25305;-90
2023/06/24 08:40:59;;;;;;;4.20;1.97;;;21.40;99.90;;;;;;1890138;75;25315;-90
2023/06/24 08:43:48;;;;;;;2.90;1.80;;;21.50;99.90;;;;;;1862753;76;25347;-88
2023/06/24 08:46:37;;;;;;;2.73;1.77;;;21.50;99.90;;;;;;1853376;76;25273;-89
2023/06/24 08:52:12;;;;;;;6.17;2.00;;;21.60;99.90;;;;;;1989432;71;27036;-89
2023/06/24 09:18:06;;;;;;;3.80;1.80;;;21.80;99.90;;;;;;1926596;73;26373;-92
2023/06/24 10:35:30;;;;;;;3.63;2.10;;;21.20;99.90;;;;;;1911867;74;28322;-91
2023/06/24 11:27:30;;;;;;;3.27;2.70;;;22.40;99.90;;;;;;1966604;71;28152;-90
2023/06/24 11:35:08;;;;;;;5.27;3.77;;;22.80;99.90;;;;;;1944907;72;26456;-89
2023/06/24 11:37:59;;;;;;;7.33;3.87;;;22.80;99.90;;;;;;1927393;73;25174;-92
2023/06/24 11:40:50;;;;;;;5.43;3.57;;;22.70;99.90;;;;;;1966097;72;25272;-92
2023/06/24 11:43:41;;;;;;;9.07;4.60;;;22.70;99.90;;;;;;1966337;71;25221;-92
2023/06/24 11:46:33;;;;;;;8.07;4.53;;;22.80;99.90;;;;;;1944774;72;25383;-92
2023/06/24 11:53:11;;;;;;;10.53;5.03;;;22.90;99.90;;;;;;1945265;72;26932;-91
2023/06/24 11:59:40;;;;;;;7.53;5.03;;;22.70;99.90;;;;;;1927355;73;25247;-91
2023/06/24 13:03:53;;;;;;;8.87;5.70;;;22.50;99.90;;;;;;1886422;75;26499;-90
2023/06/24 13:06:49;;;;;;;7.50;5.30;;;23.10;99.90;;;;;;1798225;77;25650;-90
2023/06/24 13:38:00;;;;;;;4.83;3.77;;;23.40;99.90;;;;;;1915845;74;27606;-91
2023/06/24 13:40:52;;;;;;;7.20;4.13;;;23.50;99.90;;;;;;1874860;76;25233;-90
2023/06/24 13:43:42;;;;;;;6.23;2.87;;;23.40;99.90;;;;;;1849754;76;25223;-90
2023/06/24 13:46:33;;;;;;;5.37;3.17;;;23.70;99.90;;;;;;1844253;77;25296;-91
2023/06/24 13:49:22;;;;;;;3.13;2.80;;;23.60;99.90;;;;;;1817949;77;25276;-91
2023/06/24 14:07:13;;;;;;;3.90;2.90;;;23.70;99.90;;;;;;1917821;73;27821;-90
2023/06/24 14:27:13;;;;;;;4.33;2.67;;;24.20;99.90;;;;;;1840539;78;26457;-92
2023/06/24 15:29:57;;;;;;;3.57;2.10;;;24.20;99.90;;;;;;1927025;72;27186;-91
2023/06/24 17:27:50;;;;;;;3.23;2.83;;;23.70;99.90;;;;;;1920709;73;26391;-91
2023/06/24 17:31:20;;;;;;;3.83;2.80;;;23.80;99.90;;;;;;1903177;73;25965;-91
2023/06/24 17:48:45;;;;;;;3.43;2.40;;;23.80;99.90;;;;;;1936465;73;28783;-92
2023/06/24 18:16:25;;;;;;;3.90;2.33;;;22.70;99.90;;;;;;1970075;71;26214;-90
2023/06/24 18:19:14;;;;;;;4.40;2.30;;;22.80;99.90;;;;;;1919480;74;25237;-90
2023/06/24 18:22:03;;;;;;;2.77;2.30;;;22.70;99.90;;;;;;1925358;74;25295;-90
2023/06/24 18:25:07;;;;;;;3.03;2.47;;;22.60;99.90;;;;;;1921766;74;25240;-91
2023/06/24 18:27:56;;;;;;;2.80;2.30;;;22.40;99.90;;;;;;1915736;74;25256;-90
2023/06/24 18:30:45;;;;;;;2.50;2.30;;;22.30;99.90;;;;;;1915876;74;25642;-90
2023/06/24 18:33:33;;;;;;;2.40;2.20;;;22.20;99.90;;;;;;1922234;74;25229;-90
2023/06/24 18:36:22;;;;;;;5.37;2.37;;;22.10;99.90;;;;;;1913056;74;25320;-90
2023/06/24 18:42:03;;;;;;;2.40;2.20;;;22.00;99.90;;;;;;1946811;72;26453;-90
2023/06/24 18:44:52;;;;;;;3.03;2.10;;;21.90;99.90;;;;;;1902081;75;25750;-90
2023/06/24 18:47:41;;;;;;;3.17;2.17;;;21.90;99.90;;;;;;1915035;74;25229;-90
2023/06/24 19:06:28;;;;;;;2.50;2.30;;;22.00;99.90;;;;;;1960059;72;27096;-91
2023/06/24 19:09:16;;;;;;;2.50;2.07;;;22.10;99.90;;;;;;1969278;72;25166;-90
2023/06/24 19:12:06;;;;;;;2.90;2.10;;;22.20;99.90;;;;;;1965027;72;25229;-90
2023/06/24 19:14:57;;;;;;;2.10;2.00;;;22.20;99.90;;;;;;1957682;72;25254;-90
2023/06/24 19:17:46;;;;;;;2.37;2.00;;;22.20;99.90;;;;;;1956185;73;25250;-90
2023/06/24 19:20:34;;;;;;;2.30;2.10;;;22.20;99.90;;;;;;1956116;73;25205;-88
2023/06/24 19:23:23;;;;;;;2.53;2.00;;;22.20;99.90;;;;;;1975798;72;25226;-91
2023/06/24 19:43:01;;;;;;;2.70;2.50;;;22.00;99.90;;;;;;1983281;71;27464;-90
2023/06/24 19:45:50;;;;;;;2.70;2.30;;;21.40;99.90;;;;;;1939995;73;25168;-90
2023/06/24 19:48:43;;;;;;;4.17;2.40;;;21.20;99.90;;;;;;1921415;73;25195;-90
2023/06/24 19:51:32;;;;;;;2.97;2.60;;;21.20;99.90;;;;;;1927871;73;25228;-90
2023/06/24 19:54:21;;;;;;;3.20;2.70;;;21.10;99.90;;;;;;1931364;73;25731;-90
2023/06/24 19:57:10;;;;;;;3.83;2.70;;;21.20;99.90;;;;;;1935982;73;25169;-90
2023/06/24 19:59:58;;;;;;;3.13;2.77;;;21.10;99.90;;;;;;1932975;73;25174;-90
2023/06/24 20:02:47;;;;;;;5.03;2.93;;;21.00;99.90;;;;;;1925957;73;25183;-90
2023/06/24 20:08:16;;;;;;;5.57;3.00;;;20.80;99.90;;;;;;1945017;72;27087;-89
2023/06/24 20:11:05;;;;;;;4.07;3.20;;;20.80;99.90;;;;;;1901593;75;25229;-92
2023/06/24 20:13:53;;;;;;;5.40;3.07;;;20.80;99.90;;;;;;1906939;75;25243;-92
2023/06/24 20:16:44;;;;;;;3.60;3.07;;;20.80;99.90;;;;;;1898442;75;25312;-92
2023/06/24 20:19:33;;;;;;;4.77;3.10;;;20.80;99.90;;;;;;1892418;73;25262;-92
2023/06/24 20:36:12;;;;;;;9.03;4.90;;;20.60;99.90;;;;;;1989244;71;27499;-90
2023/06/24 20:41:53;;;;;;;8.17;5.00;;;20.40;99.90;;;;;;1969449;72;26947;-90
2023/06/24 20:44:42;;;;;;;11.77;5.00;;;20.20;99.90;;;;;;1884725;75;25395;-90
2023/06/24 20:47:30;;;;;;;10.00;5.40;;;20.20;99.90;;;;;;1897886;75;25252;-90
2023/06/24 20:54:03;;;;;;;12.80;5.67;;;20.20;99.90;;;;;;1939670;73;26325;-90
2023/06/24 21:00:12;;;;;;;14.17;5.77;;;20.20;99.90;;;;;;1917204;74;26973;-89
2023/06/24 21:03:01;;;;;;;9.73;5.83;;;20.20;99.90;;;;;;1921965;73;25767;-89
2023/06/24 21:05:50;;;;;;;11.20;5.90;;;20.20;99.90;;;;;;1911214;73;25247;-89
2023/06/24 21:25:55;;;;;;;13.93;6.80;;;20.00;99.90;;;;;;1990358;71;27497;-90
2023/06/24 21:28:45;;;;;;;22.03;6.70;;;19.90;99.90;;;;;;2016395;70;25159;-90
2023/06/24 21:31:34;;;;;;;12.70;6.30;;;19.90;99.90;;;;;;2010280;70;25206;-90
2023/06/24 21:34:26;;;;;;;18.23;7.70;;;19.80;99.90;;;;;;2010489;70;25213;-90
2023/06/24 21:37:15;;;;;;;17.63;7.27;;;19.80;99.90;;;;;;2022085;70;25167;-89
2023/06/24 21:40:04;;;;;;;11.73;6.90;;;19.80;99.90;;;;;;2023026;70;25654;-89
2023/06/24 21:42:53;;;;;;;13.47;6.70;;;19.70;99.90;;;;;;2010624;70;25665;-89
2023/06/24 21:45:41;;;;;;;17.27;7.13;;;19.70;99.90;;;;;;1986297;72;25234;-91
2023/06/24 21:51:27;;;;;;;12.23;6.50;;;19.50;99.90;;;;;;1954863;72;26392;-90
2023/06/24 21:54:15;;;;;;;17.23;7.07;;;19.40;99.90;;;;;;1948471;72;26341;-91
2023/06/24 21:57:05;;;;;;;12.63;7.03;;;19.40;99.90;;;;;;1949783;73;25295;-90
2023/06/24 21:59:54;;;;;;;16.80;7.17;;;19.40;99.90;;;;;;1915249;73;25715;-90
2023/06/24 22:05:43;;;;;;;18.20;8.03;;;19.30;99.90;;;;;;1944167;72;26788;-90
2023/06/24 22:14:41;;;;;;;16.87;8.13;;;19.20;99.90;;;;;;1984603;71;26860;-90
2023/06/24 22:17:29;;;;;;;17.27;7.93;;;19.10;99.90;;;;;;2016266;70;25237;-89
2023/06/24 22:20:19;;;;;;;13.80;8.97;;;19.10;99.90;;;;;;2022171;70;25256;-90
2023/06/24 22:23:07;;;;;;;15.67;8.63;;;19.10;99.90;;;;;;2016057;70;25284;-90
2023/06/24 22:25:56;;;;;;;17.80;9.47;;;19.10;99.90;;;;;;2034084;69;25322;-90
2023/06/24 22:28:46;;;;;;;14.17;8.60;;;19.10;99.90;;;;;;1996445;70;25797;-90
2023/06/24 22:31:35;;;;;;;15.20;7.80;;;19.10;99.90;;;;;;2027060;70;25213;-90
2023/06/24 22:34:23;;;;;;;13.30;7.50;;;19.20;99.90;;;;;;2021445;70;25584;-90
2023/06/24 22:37:13;;;;;;;16.30;8.60;;;19.20;99.90;;;;;;2004152;70;25275;-89
2023/06/24 22:40:02;;;;;;;14.37;7.97;;;19.20;99.90;;;;;;2025361;70;25247;-89
2023/06/24 22:42:50;;;;;;;13.30;7.87;;;19.20;99.90;;;;;;2000321;70;25365;-89
2023/06/24 22:45:39;;;;;;;14.87;7.80;;;19.20;99.90;;;;;;1986054;71;25276;-89
2023/06/24 22:51:21;;;;;;;13.40;7.57;;;18.80;99.90;;;;;;1945951;72;27045;-90
2023/06/24 22:54:10;;;;;;;18.87;8.23;;;18.80;99.90;;;;;;1940054;72;25376;-90
2023/06/24 22:57:00;;;;;;;16.20;7.67;;;18.80;99.90;;;;;;1939861;72;25872;-91
2023/06/24 23:04:02;;;;;;;15.90;7.90;;;18.70;99.90;;;;;;1976056;71;28338;-90
2023/06/24 23:06:54;;;;;;;15.53;8.00;;;18.60;99.90;;;;;;1989082;72;25317;-90
2023/06/24 23:09:44;;;;;;;18.53;8.90;;;18.60;99.90;;;;;;1996720;72;25153;-90
2023/06/24 23:12:34;;;;;;;14.83;7.80;;;18.50;99.90;;;;;;1973868;71;25301;-89
2023/06/24 23:15:24;;;;;;;14.17;7.27;;;18.50;99.90;;;;;;1997562;72;25154;-89
2023/06/24 23:18:13;;;;;;;11.27;8.17;;;18.30;99.90;;;;;;1987121;71;25240;-89
2023/06/24 23:23:56;;;;;;;17.37;7.97;;;18.30;99.90;;;;;;1982478;71;27025;-90
2023/06/24 23:26:50;;;;;;;15.90;7.60;;;18.20;99.90;;;;;;1918254;72;25233;-90
2023/06/24 23:29:36;;;;;;;19.40;7.80;;;18.20;99.90;;;;;;1927006;73;25349;-90
2023/06/24 23:35:15;;;;;;;15.47;7.07;;;18.20;99.90;;;;;;1941990;72;27088;-90
2023/06/24 23:38:05;;;;;;;18.33;7.30;;;18.30;99.90;;;;;;1917345;73;25349;-89
2023/06/24 23:40:56;;;;;;;12.70;7.63;;;18.30;99.90;;;;;;1930943;73;25358;-89
2023/06/24 23:43:45;;;;;;;15.87;8.00;;;18.30;99.90;;;;;;1918502;73;25305;-90
2023/06/24 23:46:35;;;;;;;15.83;7.80;;;18.20;99.90;;;;;;1901284;75;25365;-90
2023/06/24 23:49:24;;;;;;;11.07;6.97;;;18.10;99.90;;;;;;1886794;74;25241;-90
2023/06/24 23:52:12;;;;;;;11.37;7.47;;;18.00;99.90;;;;;;1901034;74;25742;-90
2023/06/24 23:55:02;;;;;;;12.97;7.90;;;17.90;99.90;;;;;;1895689;73;25274;-90
2023/06/24 23:57:51;;;;;;;15.17;7.83;;;17.80;99.90;;;;;;1906763;73;25221;-90
